Time;durP1;ratioP1;P1;durP2;ratioP2;P2;SDS_P1;SDS_P2;PMS_P1;PMS_P2;Temp;Humidity;BMP_temperature;BMP_pressure;BME280_temperature;BME280_humidity;BME280_pressure;Samples;Min_cycle;Max_cycle;Signal;HPM_P1;HPM_P2
2020/12/20 00:01:44;;;;;;;126.47;49.08;;;;;;;-0.19;84.66;101590.40;1714963;81;26524;-63
2020/12/20 00:04:13;;;;;;;138.20;50.45;;;;;;;-0.19;84.64;101583.38;1728291;81;25844;-65
2020/12/20 00:06:45;;;;;;;119.45;46.80;;;;;;;-0.20;84.65;101576.77;1727145;81;26532;-63
2020/12/20 00:09:21;;;;;;;118.17;46.42;;;;;;;-0.19;84.62;101579.42;1732018;81;25923;-64
2020/12/20 00:11:56;;;;;;;121.65;49.85;;;;;;;-0.21;84.61;101580.27;1722483;81;26147;-62
2020/12/20 00:14:27;;;;;;;119.10;47.35;;;;;;;-0.21;84.65;101588.17;1729083;80;26354;-63
2020/12/20 00:17:06;;;;;;;118.20;46.88;;;;;;;-0.24;84.59;101585.48;1731265;81;26105;-62
2020/12/20 00:19:34;;;;;;;120.42;48.50;;;;;;;-0.24;84.64;101589.44;1753337;80;27467;-61
2020/12/20 00:22:12;;;;;;;114.35;46.30;;;;;;;-0.26;84.62;101588.53;1728738;81;25761;-63
2020/12/20 00:24:44;;;;;;;120.53;48.10;;;;;;;-0.24;84.66;101593.39;1725542;81;26487;-64
2020/12/20 00:27:13;;;;;;;111.20;46.18;;;;;;;-0.24;84.64;101592.08;1679526;83;26079;-63
2020/12/20 00:29:41;;;;;;;115.25;46.95;;;;;;;-0.25;84.61;101595.14;1734199;81;25922;-64
2020/12/20 00:32:12;;;;;;;111.45;46.30;;;;;;;-0.28;84.57;101588.50;1734182;81;27833;-65
2020/12/20 00:34:40;;;;;;;109.07;44.40;;;;;;;-0.27;84.64;101592.02;1684133;83;25951;-64
2020/12/20 00:37:09;;;;;;;111.08;45.23;;;;;;;-0.27;84.58;101584.12;1720211;82;25771;-63
2020/12/20 00:39:38;;;;;;;111.35;44.40;;;;;;;-0.28;84.61;101587.62;1706880;82;26586;-64
2020/12/20 00:42:07;;;;;;;115.97;45.45;;;;;;;-0.30;84.60;101582.76;1706606;82;26074;-64
2020/12/20 00:44:35;;;;;;;106.05;43.50;;;;;;;-0.32;84.61;101580.53;1706422;82;27645;-63
2020/12/20 00:47:05;;;;;;;119.80;44.27;;;;;;;-0.32;84.58;101586.69;1706608;82;25678;-63
2020/12/20 00:49:37;;;;;;;109.48;44.95;;;;;;;-0.33;84.61;101587.55;1719313;82;25669;-63
2020/12/20 00:52:08;;;;;;;111.77;44.90;;;;;;;-0.32;84.59;101585.80;1707008;82;25760;-63
2020/12/20 00:54:36;;;;;;;108.20;43.63;;;;;;;-0.35;84.58;101583.57;1706584;81;25831;-64
2020/12/20 00:57:07;;;;;;;112.95;45.12;;;;;;;-0.38;84.56;101588.79;1700031;81;28503;-63
2020/12/20 00:59:36;;;;;;;122.60;46.68;;;;;;;-0.38;84.57;101588.79;1707986;81;26497;-63
2020/12/20 01:02:05;;;;;;;106.83;44.65;;;;;;;-0.40;84.62;101591.83;1683428;83;25909;-63
2020/12/20 01:04:33;;;;;;;115.75;44.15;;;;;;;-0.39;84.63;101596.66;1722851;80;25924;-63
2020/12/20 01:07:02;;;;;;;112.45;44.75;;;;;;;-0.37;84.64;101605.48;1728449;81;25868;-63
2020/12/20 01:09:33;;;;;;;112.00;43.58;;;;;;;-0.37;84.66;101605.05;1735804;81;28025;-63
2020/12/20 01:12:03;;;;;;;108.85;45.35;;;;;;;-0.36;84.68;101604.19;1736869;81;26188;-63
2020/12/20 01:14:31;;;;;;;102.90;41.92;;;;;;;-0.36;84.62;101608.56;1728963;80;25896;-64
2020/12/20 01:17:05;;;;;;;98.60;43.63;;;;;;;-0.36;84.62;101599.35;1723187;80;26126;-63
2020/12/20 01:19:33;;;;;;;109.55;44.25;;;;;;;-0.38;84.61;101601.95;1699705;82;25812;-63
2020/12/20 01:22:02;;;;;;;111.37;44.00;;;;;;;-0.39;84.63;101601.50;1701133;82;27464;-63
2020/12/20 01:24:32;;;;;;;111.62;43.13;;;;;;;-0.39;84.62;101595.34;1699346;81;26805;-63
2020/12/20 01:27:01;;;;;;;113.28;44.55;;;;;;;-0.41;84.58;101590.05;1709379;82;36378;-63
2020/12/20 01:29:29;;;;;;;107.70;44.80;;;;;;;-0.41;84.66;101591.38;1685371;82;25936;-64
2020/12/20 01:31:57;;;;;;;116.37;45.70;;;;;;;-0.41;84.63;101583.91;1712505;82;25857;-64
2020/12/20 01:34:25;;;;;;;109.80;42.70;;;;;;;-0.43;84.60;101586.52;1706559;81;27865;-64
2020/12/20 01:36:56;;;;;;;110.20;45.67;;;;;;;-0.41;84.62;101582.58;1679065;84;25782;-63
2020/12/20 01:39:23;;;;;;;102.80;42.62;;;;;;;-0.45;84.95;101579.02;1722623;81;25964;-63
2020/12/20 01:41:53;;;;;;;101.18;41.02;;;;;;;-0.45;84.95;101579.02;1727688;80;26404;-64
2020/12/20 01:44:22;;;;;;;110.22;43.90;;;;;;;-0.45;84.62;101578.12;1723154;81;26585;-63
2020/12/20 01:46:56;;;;;;;99.55;41.92;;;;;;;-0.46;84.62;101582.52;1726961;81;28293;-63
2020/12/20 01:49:24;;;;;;;96.20;40.10;;;;;;;-0.44;84.66;101586.05;1727851;81;25789;-71
2020/12/20 01:51:53;;;;;;;106.32;40.38;;;;;;;-0.46;84.64;101586.46;1726966;81;25836;-70
2020/12/20 01:54:22;;;;;;;111.68;41.50;;;;;;;-0.46;84.59;101587.78;1726860;81;26165;-70
2020/12/20 01:56:52;;;;;;;109.85;43.25;;;;;;;-0.48;84.59;101577.65;1725583;81;26005;-70
2020/12/20 01:59:23;;;;;;;98.82;40.75;;;;;;;-0.51;84.59;101576.28;1718680;80;27838;-70
2020/12/20 02:01:52;;;;;;;96.67;38.48;;;;;;;-0.53;84.56;101581.95;1676794;82;25925;-69
2020/12/20 02:04:20;;;;;;;99.22;39.63;;;;;;;-0.55;84.59;101593.32;1722325;81;25831;-69
2020/12/20 02:06:50;;;;;;;106.50;41.50;;;;;;;-0.58;84.57;101583.63;1725089;81;25977;-69
2020/12/20 02:09:21;;;;;;;101.75;41.15;;;;;;;-0.59;84.57;101574.38;1726168;80;25801;-72
2020/12/20 02:11:49;;;;;;;98.35;40.85;;;;;;;-0.59;84.61;101571.31;1725961;81;33265;-71
2020/12/20 02:14:17;;;;;;;102.30;41.95;;;;;;;-0.59;84.63;101564.73;1722635;81;25732;-71
2020/12/20 02:16:45;;;;;;;106.35;43.23;;;;;;;-0.58;84.66;101569.14;1720653;81;26431;-71
2020/12/20 02:19:13;;;;;;;100.70;41.60;;;;;;;-0.59;84.64;101564.73;1726451;81;26165;-71
2020/12/20 02:21:42;;;;;;;99.30;41.18;;;;;;;-0.58;84.66;101566.94;1724438;81;26713;-71
2020/12/20 02:24:10;;;;;;;103.17;40.23;;;;;;;-0.59;84.62;101556.84;1668087;84;27543;-71
2020/12/20 02:26:38;;;;;;;103.17;41.13;;;;;;;-0.59;84.65;101554.63;1724020;81;25991;-71
2020/12/20 02:29:05;;;;;;;94.32;39.33;;;;;;;-0.60;84.63;101549.80;1716478;80;26009;-71
2020/12/20 02:31:34;;;;;;;104.70;41.15;;;;;;;-0.59;84.67;101550.25;1725079;81;26100;-71
2020/12/20 02:34:05;;;;;;;98.33;40.92;;;;;;;-0.60;84.62;101553.75;1722521;81;25891;-71
2020/12/20 02:36:37;;;;;;;100.92;39.73;;;;;;;-0.63;84.63;101556.33;1725294;81;27352;-71
2020/12/20 02:39:08;;;;;;;110.05;43.78;;;;;;;-0.62;84.63;101563.37;1727935;81;25894;-71
2020/12/20 02:41:36;;;;;;;92.40;39.18;;;;;;;-0.64;84.60;101556.30;1725039;80;25851;-70
2020/12/20 02:44:05;;;;;;;103.38;39.30;;;;;;;-0.66;84.63;101554.53;1722597;81;25881;-70
2020/12/20 02:46:35;;;;;;;104.43;41.33;;;;;;;-0.67;84.63;101545.30;1726673;81;25817;-70
2020/12/20 02:49:03;;;;;;;86.90;38.58;;;;;;;-0.67;84.63;101547.49;1726168;80;28417;-70
2020/12/20 02:51:35;;;;;;;92.53;38.65;;;;;;;-0.73;84.60;101540.81;1724305;81;26016;-70
2020/12/20 02:54:03;;;;;;;93.60;38.60;;;;;;;-0.70;84.60;101550.08;1720149;81;26036;-68
2020/12/20 02:56:32;;;;;;;102.17;39.00;;;;;;;-0.69;84.64;101543.95;1728410;80;25949;-67
2020/12/20 02:59:02;;;;;;;91.80;38.38;;;;;;;-0.70;84.63;101532.08;1727551;81;26574;-69
2020/12/20 03:01:30;;;;;;;105.33;39.47;;;;;;;-0.70;84.65;101533.39;1724025;81;27725;-66
2020/12/20 03:03:58;;;;;;;101.38;41.10;;;;;;;-0.71;84.64;101539.09;1724254;82;25866;-67
2020/12/20 03:06:25;;;;;;;96.42;38.90;;;;;;;-0.72;84.64;101533.80;1719198;80;25857;-67
2020/12/20 03:08:56;;;;;;;97.40;39.30;;;;;;;-0.71;84.65;101530.30;1716542;81;26688;-67
2020/12/20 03:11:25;;;;;;;95.30;40.40;;;;;;;-0.72;84.64;101527.22;1715309;81;25859;-69
2020/12/20 03:13:53;;;;;;;98.17;39.85;;;;;;;-0.72;84.63;101527.22;1723775;81;27896;-67
2020/12/20 03:16:23;;;;;;;96.22;38.53;;;;;;;-0.73;84.62;101524.13;1721986;80;25702;-68
2020/12/20 03:18:50;;;;;;;90.40;38.78;;;;;;;-0.71;84.67;101531.19;1725658;81;26329;-67
2020/12/20 03:21:20;;;;;;;102.27;41.30;;;;;;;-0.73;84.64;101532.91;1725600;80;26165;-69
2020/12/20 03:23:48;;;;;;;104.72;45.75;;;;;;;-0.72;84.70;101531.16;1726623;81;25861;-68
2020/12/20 03:26:19;;;;;;;111.20;45.70;;;;;;;-0.72;84.68;101525.47;1722981;80;27777;-69
2020/12/20 03:28:47;;;;;;;;;;;;;;;-0.71;84.64;101533.83;1727258;81;26068;-67
2020/12/20 03:31:17;;;;;;;97.53;39.38;;;;;;;-0.73;84.66;101538.61;1719564;80;25848;-67
2020/12/20 03:33:46;;;;;;;103.97;42.00;;;;;;;-0.75;84.67;101540.33;1715031;81;26457;-67
2020/12/20 03:36:16;;;;;;;101.60;40.78;;;;;;;-0.77;84.63;101544.25;1727376;81;25827;-67
2020/12/20 03:38:44;;;;;;;95.80;39.05;;;;;;;-0.77;84.64;101551.26;1728396;79;27409;-68
2020/12/20 03:41:14;;;;;;;94.10;38.60;;;;;;;-0.76;84.63;101550.40;1732997;81;25873;-67
2020/12/20 03:43:43;;;;;;;98.15;38.98;;;;;;;-0.78;84.61;101544.22;1731578;81;26517;-67
2020/12/20 03:46:12;;;;;;;95.80;39.90;;;;;;;-0.79;84.67;101543.34;1705154;82;26984;-68
2020/12/20 03:48:42;;;;;;;106.63;37.53;;;;;;;-0.77;84.66;101546.00;1716099;80;26783;-68
2020/12/20 03:51:11;;;;;;;97.92;39.20;;;;;;;-0.80;84.67;101544.20;1716726;80;25907;-68
2020/12/20 03:53:38;;;;;;;95.47;37.08;;;;;;;-0.79;84.67;101539.39;1719127;81;26025;-67
2020/12/20 03:56:11;;;;;;;92.30;37.08;;;;;;;-0.77;84.72;101542.94;1721883;81;25793;-67
2020/12/20 03:58:39;;;;;;;91.05;36.08;;;;;;;-0.76;84.73;101544.70;1718989;81;26559;-67
2020/12/20 04:01:08;;;;;;;89.62;38.23;;;;;;;-0.75;84.70;101549.11;1728501;81;25517;-67
2020/12/20 04:03:36;;;;;;;97.30;38.40;;;;;;;-0.75;84.69;101553.48;1715230;80;27625;-66
2020/12/20 04:06:03;;;;;;;90.80;35.50;;;;;;;-0.78;84.60;101553.44;1719771;81;25853;-65
2020/12/20 04:08:31;;;;;;;99.40;37.33;;;;;;;-0.79;84.61;101567.45;1726362;80;25957;-66
2020/12/20 04:10:59;;;;;;;89.05;35.55;;;;;;;-0.80;84.71;101581.48;1730211;81;26733;-66
2020/12/20 04:13:32;;;;;;;95.45;37.00;;;;;;;-0.81;84.60;101582.33;1719402;80;25755;-67
2020/12/20 04:16:06;;;;;;;93.45;35.73;;;;;;;-0.84;84.59;101577.91;1721085;81;28464;-67
2020/12/20 04:18:38;;;;;;;89.50;38.02;;;;;;;-0.87;84.60;101587.06;1718412;81;25999;-67
2020/12/20 04:21:06;;;;;;;94.15;37.30;;;;;;;-0.87;84.63;101585.74;1713888;80;25966;-68
2020/12/20 04:23:34;;;;;;;88.00;35.10;;;;;;;-0.87;84.67;101575.22;1720791;81;26452;-68
2020/12/20 04:26:01;;;;;;;82.95;35.08;;;;;;;-0.84;84.67;101578.33;1720741;81;25943;-67
2020/12/20 04:28:29;;;;;;;81.78;34.83;;;;;;;-0.86;84.65;101571.73;1720375;81;28405;-68
2020/12/20 04:30:59;;;;;;;90.92;37.00;;;;;;;-0.85;84.67;101573.93;1716507;81;26481;-63
2020/12/20 04:33:28;;;;;;;99.40;39.25;;;;;;;-0.88;84.65;101579.14;1718996;80;26150;-63
2020/12/20 04:35:56;;;;;;;85.83;36.73;;;;;;;-0.87;84.66;101583.54;1720205;81;26170;-63
2020/12/20 04:38:24;;;;;;;95.62;36.77;;;;;;;-0.90;84.62;101584.38;1716387;81;26055;-63
2020/12/20 04:40:51;;;;;;;86.63;35.52;;;;;;;-0.91;84.63;101581.71;1721690;81;27684;-63
2020/12/20 04:43:22;;;;;;;98.45;37.50;;;;;;;-0.94;84.63;101577.28;1693875;81;26457;-63
2020/12/20 04:45:54;;;;;;;86.02;36.30;;;;;;;-0.93;84.65;101576.85;1721209;81;25912;-63
2020/12/20 04:48:28;;;;;;;87.62;35.68;;;;;;;-0.93;84.62;101586.06;1703940;80;25991;-63
2020/12/20 04:50:58;;;;;;;92.57;35.35;;;;;;;-0.95;84.62;101586.03;1735806;80;25823;-63
2020/12/20 04:53:29;;;;;;;105.37;37.78;;;;;;;-0.95;84.67;101583.83;1717464;81;27921;-62
2020/12/20 04:56:11;;;;;;;90.62;36.30;;;;;;;-0.94;84.68;101577.71;1719576;81;26365;-62
2020/12/20 04:58:41;;;;;;;96.15;35.88;;;;;;;-0.95;84.64;101574.62;1719281;80;25805;-63
2020/12/20 05:01:09;;;;;;;100.15;38.67;;;;;;;-0.96;84.65;101572.84;1721275;81;25860;-63
2020/12/20 05:03:37;;;;;;;93.55;36.42;;;;;;;-0.96;84.69;101572.41;1718880;81;25813;-63
2020/12/20 05:06:06;;;;;;;87.70;35.50;;;;;;;-0.96;84.66;101571.53;1718636;81;28430;-63
2020/12/20 05:08:35;;;;;;;97.90;37.33;;;;;;;-0.96;84.67;101570.22;1719261;81;26018;-63
2020/12/20 05:11:04;;;;;;;90.03;34.85;;;;;;;-0.98;84.64;101568.87;1718320;81;25912;-63
2020/12/20 05:13:41;;;;;;;84.60;33.08;;;;;;;-0.99;84.60;101571.05;1723413;81;26418;-63
2020/12/20 05:16:33;;;;;;;91.82;35.08;;;;;;;-1.02;84.56;101574.51;1721508;81;26092;-63
2020/12/20 05:19:02;;;;;;;89.25;34.80;;;;;;;-1.04;84.61;101568.33;1671819;83;28760;-65
2020/12/20 05:21:30;;;;;;;86.67;32.93;;;;;;;-1.06;84.61;101566.09;1668409;83;26282;-63
2020/12/20 05:24:01;;;;;;;96.45;36.60;;;;;;;-1.08;84.55;101571.77;1684995;81;26525;-62
2020/12/20 05:26:31;;;;;;;87.27;35.00;;;;;;;-1.10;84.63;101570.84;1687801;80;26180;-64
2020/12/20 05:29:13;;;;;;;76.13;31.37;;;;;;;-1.11;84.85;101574.77;1718813;80;25960;-64
2020/12/20 05:31:42;;;;;;;81.40;31.20;;;;;;;-1.11;84.85;101574.77;1704142;81;26105;-63
2020/12/20 05:34:12;;;;;;;71.53;31.20;;;;;;;-1.16;84.58;101573.36;1710842;81;26825;-63
2020/12/20 05:36:43;;;;;;;98.20;35.30;;;;;;;-1.16;84.58;101573.79;1744226;80;25819;-62
2020/12/20 05:39:19;;;;;;;81.32;33.40;;;;;;;-1.16;84.64;101575.99;1722413;81;26082;-63
2020/12/20 05:41:49;;;;;;;78.72;31.07;;;;;;;-1.17;84.61;101579.91;1721363;81;25727;-63
2020/12/20 05:44:24;;;;;;;94.58;34.25;;;;;;;-1.17;84.64;101583.42;1732346;81;27741;-65
2020/12/20 05:46:53;;;;;;;76.90;32.42;;;;;;;-1.16;84.68;101585.20;1714804;82;25881;-63
2020/12/20 05:49:23;;;;;;;79.72;31.30;;;;;;;-1.16;84.62;101589.58;1683641;82;26034;-64
2020/12/20 05:52:09;;;;;;;82.88;32.70;;;;;;;-1.18;84.57;101596.12;1727038;80;25792;-63
2020/12/20 05:54:41;;;;;;;82.88;32.00;;;;;;;-1.21;84.55;101597.80;1698921;81;26397;-62
2020/12/20 05:57:15;;;;;;;81.53;32.85;;;;;;;-1.23;84.59;101600.41;1710554;82;27674;-63
2020/12/20 05:59:51;;;;;;;73.78;32.73;;;;;;;-1.25;84.57;101604.75;1730296;82;32542;-63
2020/12/20 06:02:20;;;;;;;85.50;32.85;;;;;;;-1.25;84.62;101607.38;1727243;82;26567;-65
2020/12/20 06:04:49;;;;;;;79.87;32.55;;;;;;;-1.26;84.60;101606.92;1707059;82;25820;-63
2020/12/20 06:07:22;;;;;;;85.30;32.70;;;;;;;-1.26;84.60;101602.08;1664966;83;25848;-63
2020/12/20 06:09:58;;;;;;;81.12;31.33;;;;;;;-1.28;84.58;101606.42;1733389;81;28072;-63
2020/12/20 06:12:30;;;;;;;81.40;31.33;;;;;;;-1.29;84.61;101603.34;1723877;80;25783;-63
2020/12/20 06:14:59;;;;;;;71.02;29.67;;;;;;;-1.29;84.62;101604.22;1732556;81;25826;-63
2020/12/20 06:17:28;;;;;;;78.35;31.73;;;;;;;-1.29;84.66;101592.39;1715462;81;26821;-63
2020/12/20 06:20:05;;;;;;;74.97;30.32;;;;;;;-1.26;84.67;101597.71;1714915;81;26147;-63
2020/12/20 06:22:36;;;;;;;77.80;30.85;;;;;;;-1.27;84.65;101596.37;1712652;82;27979;-63
2020/12/20 06:25:06;;;;;;;69.55;29.72;;;;;;;-1.29;84.61;101601.59;1693154;82;26170;-63
2020/12/20 06:27:37;;;;;;;73.07;31.40;;;;;;;-1.31;84.59;101605.52;1713119;81;25834;-63
2020/12/20 06:30:07;;;;;;;76.85;30.90;;;;;;;-1.32;84.60;101608.99;1714718;81;26519;-65
2020/12/20 06:32:47;;;;;;;73.35;29.35;;;;;;;-1.31;84.69;101611.20;1711230;81;25824;-64
2020/12/20 06:35:25;;;;;;;80.05;31.07;;;;;;;-1.31;84.67;101607.25;1681832;83;28335;-64
2020/12/20 06:37:59;;;;;;;80.65;31.20;;;;;;;-1.32;84.65;101602.42;1731122;81;25880;-64
2020/12/20 06:40:36;;;;;;;73.20;29.35;;;;;;;-1.31;84.67;101600.25;1751365;79;25881;-64
2020/12/20 06:43:04;;;;;;;71.07;29.15;;;;;;;-1.31;84.69;101605.52;1733469;81;26143;-64
2020/12/20 06:45:45;;;;;;;74.32;30.12;;;;;;;-1.31;84.70;101612.08;1718224;81;25800;-64
2020/12/20 06:48:13;;;;;;;74.72;30.52;;;;;;;-1.26;84.73;101616.55;1723315;81;27524;-62
2020/12/20 06:50:48;;;;;;;88.30;32.25;;;;;;;-1.28;84.64;101611.69;1730065;80;25775;-64
2020/12/20 06:53:19;;;;;;;84.87;30.97;;;;;;;-1.29;84.66;101618.69;1728018;80;26057;-63
2020/12/20 06:55:48;;;;;;;78.80;30.68;;;;;;;-1.27;84.72;101616.09;1727080;80;31241;-63
2020/12/20 06:58:19;;;;;;;70.80;29.72;;;;;;;-1.25;84.69;101617.01;1731711;80;25727;-63
2020/12/20 07:00:55;;;;;;;79.93;31.93;;;;;;;-1.26;84.69;101612.17;1730600;81;27829;-62
2020/12/20 07:03:31;;;;;;;79.45;30.72;;;;;;;-1.26;84.67;101608.66;1733231;80;26719;-62
2020/12/20 07:06:15;;;;;;;69.40;30.00;;;;;;;-1.25;84.69;101616.58;1733226;81;25862;-62
2020/12/20 07:08:53;;;;;;;73.05;30.72;;;;;;;-1.32;84.68;101616.00;1724015;80;26313;-62
2020/12/20 07:11:25;;;;;;;79.65;30.85;;;;;;;-1.24;84.71;101631.94;1742464;80;26101;-62
2020/12/20 07:13:55;;;;;;;83.60;33.33;;;;;;;-1.22;84.69;101646.89;1733593;81;27304;-62
2020/12/20 07:16:39;;;;;;;82.45;32.73;;;;;;;-1.23;84.66;101643.80;1726212;80;26587;-62
2020/12/20 07:19:12;;;;;;;80.12;33.00;;;;;;;-1.24;84.59;101643.77;1733730;81;26626;-61
2020/12/20 07:21:54;;;;;;;70.90;31.02;;;;;;;-1.26;84.68;101631.91;1732910;80;26589;-61
2020/12/20 07:24:28;;;;;;;74.35;29.85;;;;;;;-1.24;84.68;101632.82;1678646;82;26110;-64
2020/12/20 07:27:03;;;;;;;73.78;29.02;;;;;;;-1.23;84.69;101633.28;1728689;81;26070;-64
2020/12/20 07:29:38;;;;;;;69.65;29.85;;;;;;;-1.21;84.75;101631.57;1708618;81;25744;-64
2020/12/20 07:32:05;;;;;;;78.60;31.42;;;;;;;-1.17;84.73;101632.09;1706831;82;25801;-64
2020/12/20 07:34:35;;;;;;;88.72;34.15;;;;;;;-1.14;84.73;101629.95;1705895;82;26054;-64
2020/12/20 07:37:04;;;;;;;76.87;32.35;;;;;;;-1.13;84.69;101629.98;1706081;82;25982;-65
2020/12/20 07:39:33;;;;;;;79.55;32.48;;;;;;;-1.13;84.63;101635.67;1693799;83;27691;-64
2020/12/20 07:42:02;;;;;;;81.17;34.50;;;;;;;-1.10;84.71;101638.36;1693682;83;25739;-64
2020/12/20 07:44:30;;;;;;;80.92;32.95;;;;;;;-1.07;84.69;101645.00;1693396;83;26048;-62
2020/12/20 07:46:57;;;;;;;81.90;31.85;;;;;;;-1.06;84.73;101638.45;1693392;83;26061;-65
2020/12/20 07:49:27;;;;;;;76.75;31.48;;;;;;;-1.02;84.71;101641.60;1693155;83;25849;-62
2020/12/20 07:51:54;;;;;;;74.75;30.60;;;;;;;-1.01;84.70;101642.06;1694455;83;26094;-63
2020/12/20 07:54:25;;;;;;;69.50;30.23;;;;;;;-1.00;84.66;101642.52;1693252;83;25863;-64
2020/12/20 07:56:55;;;;;;;76.57;32.28;;;;;;;-1.02;84.63;101641.60;1706378;81;26520;-64
2020/12/20 07:59:26;;;;;;;74.70;31.33;;;;;;;-1.01;84.64;101646.44;1717602;81;26144;-63
2020/12/20 08:01:53;;;;;;;66.55;29.95;;;;;;;-1.00;84.62;101642.95;1716477;80;26401;-65
2020/12/20 08:04:22;;;;;;;73.70;30.62;;;;;;;-0.96;84.72;101637.31;1720273;80;27822;-63
2020/12/20 08:06:54;;;;;;;66.80;29.00;;;;;;;-0.93;84.68;101637.37;1707856;81;26190;-65
2020/12/20 08:09:26;;;;;;;73.28;29.42;;;;;;;-0.92;84.66;101633.45;1719749;81;25826;-64
2020/12/20 08:11:56;;;;;;;72.08;29.72;;;;;;;-0.90;84.69;101642.70;1713520;81;26493;-64
2020/12/20 08:14:26;;;;;;;76.02;33.70;;;;;;;-0.86;84.72;101636.20;1717520;80;25947;-64
2020/12/20 08:16:54;;;;;;;80.05;32.17;;;;;;;-0.82;84.74;101637.15;1715022;80;27446;-64
2020/12/20 08:19:31;;;;;;;91.80;36.30;;;;;;;-0.78;84.79;101642.50;1721244;80;26145;-63
2020/12/20 08:22:17;;;;;;;80.87;35.08;;;;;;;-0.74;84.71;101651.34;1721659;81;26504;-63
2020/12/20 08:24:48;;;;;;;71.10;32.30;;;;;;;-0.73;84.73;101652.69;1721297;81;26263;-63
2020/12/20 08:27:27;;;;;;;71.37;30.62;;;;;;;-0.69;84.72;101653.63;1715404;80;25901;-65
2020/12/20 08:30:22;;;;;;;67.03;30.10;;;;;;;-0.69;84.68;101653.63;1712572;81;27458;-65
2020/12/20 08:32:50;;;;;;;71.05;31.30;;;;;;;-0.67;84.74;101655.86;1758227;78;26051;-65
2020/12/20 08:35:23;;;;;;;77.72;32.10;;;;;;;-0.61;84.75;101657.30;1781602;78;25831;-65
2020/12/20 08:37:58;;;;;;;74.72;31.25;;;;;;;-0.59;84.74;101652.05;1763497;78;25874;-65
2020/12/20 08:40:36;;;;;;;74.58;29.50;;;;;;;-0.53;84.84;101654.80;1777494;78;25830;-64
2020/12/20 08:43:04;;;;;;;70.57;30.35;;;;;;;-0.49;84.82;101652.67;1783111;78;26215;-64
2020/12/20 08:45:36;;;;;;;71.72;30.43;;;;;;;-0.45;84.81;101658.02;1802977;78;25850;-64
2020/12/20 08:48:04;;;;;;;70.62;30.60;;;;;;;-0.39;84.87;101667.35;1779252;78;26009;-64
2020/12/20 08:50:34;;;;;;;74.07;31.95;;;;;;;-0.35;84.82;101661.70;1775501;78;25764;-64
2020/12/20 08:53:06;;;;;;;79.32;32.85;;;;;;;-0.29;84.87;101667.08;1773986;78;25815;-64
2020/12/20 08:55:34;;;;;;;62.90;28.67;;;;;;;-0.22;84.90;101661.48;1767063;79;28297;-63
2020/12/20 08:58:08;;;;;;;68.20;28.27;;;;;;;-0.15;84.88;101661.61;1750511;80;25711;-62
2020/12/20 09:00:37;;;;;;;64.65;27.42;;;;;;;-0.11;84.85;101661.23;1750643;80;26184;-62
2020/12/20 09:03:07;;;;;;;66.62;28.32;;;;;;;-0.08;84.85;101659.97;1752817;80;26505;-63
2020/12/20 09:05:35;;;;;;;66.82;28.05;;;;;;;-0.04;84.86;101665.30;1745607;78;26524;-63
2020/12/20 09:08:05;;;;;;;59.42;26.90;;;;;;;0.01;84.85;101664.03;1747370;80;27437;-63
2020/12/20 09:10:35;;;;;;;65.60;29.37;;;;;;;0.09;84.93;101671.63;1762977;78;26273;-63
2020/12/20 09:13:07;;;;;;;64.95;29.15;;;;;;;0.20;85.10;101670.47;1755343;80;25690;-65
2020/12/20 09:15:39;;;;;;;63.95;28.38;;;;;;;0.29;85.06;101666.66;1756356;80;25747;-64
2020/12/20 09:18:29;;;;;;;64.20;27.00;;;;;;;0.34;85.01;101667.61;1703024;82;25711;-63
2020/12/20 09:20:56;;;;;;;61.08;29.70;;;;;;;0.37;84.89;101670.73;1756429;80;27806;-65
2020/12/20 09:23:26;;;;;;;63.35;28.73;;;;;;;0.40;84.93;101665.50;1755007;80;26123;-66
2020/12/20 09:26:06;;;;;;;67.57;29.33;;;;;;;0.44;84.96;101658.97;1755499;80;25974;-63
2020/12/20 09:28:36;;;;;;;68.83;29.00;;;;;;;0.49;84.93;101666.95;1755774;80;26168;-64
2020/12/20 09:31:19;;;;;;;59.35;27.20;;;;;;;0.50;84.84;101661.69;1751478;80;25773;-62
2020/12/20 09:33:49;;;;;;;55.17;25.23;;;;;;;0.51;84.81;101665.22;1682688;84;27755;-64
2020/12/20 09:36:27;;;;;;;62.58;27.80;;;;;;;0.57;84.99;101662.23;1660882;84;25670;-62
2020/12/20 09:38:59;;;;;;;57.30;28.10;;;;;;;0.65;85.01;101661.90;1659895;84;25917;-62
2020/12/20 09:41:33;;;;;;;56.65;26.23;;;;;;;0.68;84.86;101658.41;1722152;81;25728;-62
2020/12/20 09:44:01;;;;;;;61.08;27.15;;;;;;;0.73;84.96;101658.48;1721933;81;25764;-63
2020/12/20 09:46:33;;;;;;;54.03;26.48;;;;;;;0.78;84.91;101659.42;1722106;81;27614;-62
2020/12/20 09:49:04;;;;;;;;;;;;;;;0.82;84.99;101656.84;1724879;81;25759;-63
2020/12/20 09:51:34;;;;;;;69.53;28.62;;;;;;;0.88;84.90;101652.95;1722262;81;25681;-61
2020/12/20 09:54:02;;;;;;;66.25;30.88;;;;;;;0.84;84.84;101648.51;1722210;81;25356;-62
2020/12/20 09:56:30;;;;;;;63.95;28.57;;;;;;;0.84;84.87;101636.63;1717345;80;27032;-62
2020/12/20 09:58:58;;;;;;;64.32;28.25;;;;;;;0.89;84.89;101634.94;1714717;80;27589;-63
2020/12/20 10:01:26;;;;;;;65.45;28.80;;;;;;;0.92;84.83;101639.36;1713548;80;25932;-65
2020/12/20 10:03:55;;;;;;;64.82;29.02;;;;;;;0.93;84.81;101638.50;1718548;80;26052;-63
2020/12/20 10:06:23;;;;;;;72.95;31.93;;;;;;;0.93;84.75;101644.66;1702727;80;26181;-63
2020/12/20 10:08:52;;;;;;;66.72;31.30;;;;;;;0.94;84.79;101643.80;1713084;80;25804;-62
2020/12/20 10:11:21;;;;;;;65.50;30.17;;;;;;;0.97;84.86;101642.51;1725455;80;26229;-63
2020/12/20 10:13:49;;;;;;;66.28;30.72;;;;;;;1.02;84.88;101637.72;1719493;80;25935;-62
2020/12/20 10:16:19;;;;;;;68.25;32.23;;;;;;;1.07;84.79;101633.37;1715193;80;26553;-62
2020/12/20 10:18:47;;;;;;;66.63;31.03;;;;;;;1.03;84.82;101635.09;1719222;80;25877;-61
2020/12/20 10:21:18;;;;;;;63.92;30.62;;;;;;;1.14;84.80;101643.14;1714872;81;25908;-65
2020/12/20 10:23:45;;;;;;;62.70;28.45;;;;;;;1.14;84.81;101633.46;1714155;81;27696;-65
2020/12/20 10:26:18;;;;;;;64.77;29.85;;;;;;;1.20;84.84;101637.48;1710849;81;25761;-67
2020/12/20 10:28:50;;;;;;;69.65;31.20;;;;;;;1.23;84.80;101635.31;1709467;82;25650;-62
2020/12/20 10:31:21;;;;;;;73.42;31.93;;;;;;;1.24;84.75;101631.80;1687413;81;25780;-62
2020/12/20 10:33:50;;;;;;;62.48;28.20;;;;;;;1.30;84.82;101632.75;1721160;80;25759;-62
2020/12/20 10:36:20;;;;;;;64.95;30.55;;;;;;;1.40;84.86;101635.48;1745471;79;27841;-62
2020/12/20 10:38:48;;;;;;;73.57;33.70;;;;;;;1.50;84.99;101632.95;1737314;80;26312;-62
2020/12/20 10:41:18;;;;;;;67.58;30.35;;;;;;;1.62;84.94;101633.50;1744201;79;26269;-62
2020/12/20 10:43:46;;;;;;;61.65;28.90;;;;;;;1.59;84.75;101625.54;1745601;79;25838;-61
2020/12/20 10:46:18;;;;;;;64.00;30.72;;;;;;;1.63;84.63;101633.51;1742016;80;25841;-62
2020/12/20 10:48:46;;;;;;;62.67;29.67;;;;;;;1.64;84.64;101631.75;1742905;80;26981;-63
2020/12/20 10:51:13;;;;;;;62.60;29.37;;;;;;;1.65;84.63;101637.92;1745141;80;25815;-63
2020/12/20 10:53:41;;;;;;;66.72;29.37;;;;;;;1.65;84.62;101640.56;1755773;79;25867;-63
2020/12/20 10:56:11;;;;;;;62.93;31.77;;;;;;;1.69;84.64;101634.44;1752605;80;26045;-62
2020/12/20 10:58:41;;;;;;;70.77;33.73;;;;;;;1.71;84.63;101630.05;1750139;79;25921;-63
2020/12/20 11:01:16;;;;;;;82.82;37.70;;;;;;;1.76;84.68;101632.30;1745001;80;28032;-63
2020/12/20 11:03:48;;;;;;;88.62;37.33;;;;;;;1.81;84.66;101632.78;1701833;80;25948;-63
2020/12/20 11:06:25;;;;;;;71.70;33.50;;;;;;;1.87;84.67;101634.16;1721609;81;26946;-63
2020/12/20 11:08:52;;;;;;;70.97;31.62;;;;;;;1.93;84.67;101629.34;1751786;78;26473;-63
2020/12/20 11:11:31;;;;;;;65.95;32.95;;;;;;;2.02;84.68;101627.21;1741204;80;26066;-64
2020/12/20 11:14:00;;;;;;;64.20;30.77;;;;;;;2.08;84.68;101624.61;1754036;80;27261;-63
2020/12/20 11:16:28;;;;;;;58.87;28.00;;;;;;;2.12;84.62;101625.08;1751858;78;25826;-63
2020/12/20 11:18:57;;;;;;;58.45;27.98;;;;;;;2.14;84.59;101618.92;1754374;80;25854;-62
2020/12/20 11:21:27;;;;;;;64.45;30.05;;;;;;;2.18;84.60;101617.19;1751150;79;26095;-62
2020/12/20 11:23:56;;;;;;;54.73;29.07;;;;;;;2.23;84.60;101611.48;1752092;80;26472;-64
2020/12/20 11:26:26;;;;;;;60.35;30.30;;;;;;;2.28;84.63;101614.61;1744883;80;27897;-64